Saint-Jovite, Canada
Current Conditions -  °F | °C
As of 11:00 PM on Wednesday 26 Nov 2014 (Local Time) from CYMX Reporting Station
Overcast Overcast  
Wind Chill: 25°   Ceiling: 9300
Heat Index: 30°   Visibility: 25mi
Dew Point: 18°   Wind: 5mph
Humidity: 60%   Direction: 50°NE
Pressure: 30.04"   Gusts: NA
Location:  46.12°N, 74.59°W
Report Text: CYMX 270400Z 05004KT 350V110 25SM OVC093 M01/M08 A3004 RMK AS8 SLP178
Loading
Personal Weather Stations






























Interactive Weather Map New forecast layout! Learn more

10-Day Weather Forecast

Advertisements
Track Severe Weather on mobile